createdAt,value
2017-11-08T00:00:21.443Z,101399.19
2017-11-08T00:02:23.212Z,101401.45
2017-11-08T00:04:25.777Z,101392.91
2017-11-08T00:06:27.623Z,101388.16
2017-11-08T00:08:29.290Z,101381.72
2017-11-08T00:10:31.448Z,101384.28
2017-11-08T00:12:33.324Z,101381.12
2017-11-08T00:14:35.064Z,101376.02
2017-11-08T00:16:37.639Z,101375.52
2017-11-08T00:18:39.503Z,101376.97
2017-11-08T00:20:41.937Z,101366.39
2017-11-08T00:22:43.608Z,101377.73
2017-11-08T00:24:45.367Z,101371.35
2017-11-08T00:26:47.051Z,101367.55
2017-11-08T00:28:48.893Z,101372.38
2017-11-08T00:30:50.526Z,101373.28
2017-11-08T00:32:52.292Z,101380.14
2017-11-08T00:34:54.048Z,101373.63
2017-11-08T00:36:55.806Z,101376.95
2017-11-08T00:38:57.656Z,101378.98
2017-11-08T00:41:00.333Z,101381.20
2017-11-08T00:43:02.089Z,101359.85
2017-11-08T00:45:03.851Z,101384.57
2017-11-08T00:47:05.606Z,101387.21
2017-11-08T00:49:07.359Z,101384.09
2017-11-08T00:51:09.086Z,101387.66
2017-11-08T00:53:10.888Z,101391.45
2017-11-08T00:55:12.733Z,101374.91
2017-11-08T00:57:14.461Z,101385.92
2017-11-08T00:59:16.133Z,101373.28
2017-11-08T01:01:17.983Z,101376.47
2017-11-08T01:03:19.762Z,101374.73
2017-11-08T01:05:21.523Z,101377.00
2017-11-08T01:07:23.360Z,101377.22
2017-11-08T01:09:25.208Z,101371.38
2017-11-08T01:11:26.846Z,101369.72
2017-11-08T01:13:28.639Z,101365.42
2017-11-08T01:15:30.495Z,101360.94
2017-11-08T01:17:32.536Z,101355.92
2017-11-08T01:19:34.208Z,101362.78
2017-11-08T01:21:35.844Z,101365.36
2017-11-08T01:23:37.455Z,101365.27
2017-11-08T01:25:39.964Z,101358.09
2017-11-08T01:27:41.607Z,101354.89
2017-11-08T01:29:44.090Z,101350.25
2017-11-08T01:31:45.764Z,101355.26
2017-11-08T01:33:47.492Z,101353.55
2017-11-08T01:35:50.086Z,101348.61
2017-11-08T01:37:51.730Z,101355.34
2017-11-08T01:39:53.499Z,101343.00
2017-11-08T01:41:55.248Z,101340.95
2017-11-08T01:44:00.411Z,101344.84
2017-11-08T01:46:03.051Z,101340.86
2017-11-08T01:48:04.611Z,101345.44
2017-11-08T01:50:09.446Z,101332.17
2017-11-08T01:52:11.210Z,101339.03
2017-11-08T01:54:13.255Z,101344.55
2017-11-08T01:56:15.023Z,101352.24
2017-11-08T01:58:16.766Z,101344.95
2017-11-08T02:00:18.845Z,101352.95
2017-11-08T02:02:20.693Z,101357.70
2017-11-08T02:04:22.352Z,101358.52
2017-11-08T02:06:25.122Z,101355.14
2017-11-08T02:08:26.882Z,101362.19
2017-11-08T02:10:28.440Z,101356.67
2017-11-08T02:12:32.329Z,101352.73
2017-11-08T02:14:33.971Z,101353.27
2017-11-08T02:16:35.835Z,101357.15
2017-11-08T02:18:37.496Z,101368.42
2017-11-08T02:20:39.447Z,101371.00
2017-11-08T02:22:41.334Z,101361.93
2017-11-08T02:24:43.058Z,101378.08
2017-11-08T02:26:44.736Z,101373.33
2017-11-08T02:28:46.482Z,101374.12
2017-11-08T02:30:48.225Z,101374.70
2017-11-08T02:32:49.889Z,101376.34
2017-11-08T02:34:51.641Z,101377.16
2017-11-08T02:36:53.606Z,101373.27
2017-11-08T02:38:55.457Z,101375.49
2017-11-08T02:40:57.246Z,101370.91
2017-11-08T02:42:58.984Z,101369.56
2017-11-08T02:45:00.811Z,101373.44
2017-11-08T02:47:02.489Z,101373.36
2017-11-08T02:49:04.332Z,101381.38
2017-11-08T02:51:05.975Z,101381.59
2017-11-08T02:53:07.655Z,101375.76
2017-11-08T02:55:09.419Z,101376.02
2017-11-08T02:57:11.249Z,101379.66
2017-11-08T02:59:12.928Z,101378.27
2017-11-08T03:01:14.656Z,101373.97
2017-11-08T03:03:16.319Z,101368.61
2017-11-08T03:05:18.086Z,101368.98
2017-11-08T03:07:19.932Z,101365.77
2017-11-08T03:09:21.568Z,101364.76
2017-11-08T03:11:23.453Z,101363.46
2017-11-08T03:13:25.199Z,101364.81
2017-11-08T03:15:27.160Z,101358.61
2017-11-08T03:17:29.018Z,101348.53
2017-11-08T03:19:32.207Z,101343.81
2017-11-08T03:21:33.962Z,101334.48
2017-11-08T03:23:35.818Z,101348.00
2017-11-08T03:25:38.497Z,101343.26
2017-11-08T03:27:41.290Z,101334.47
2017-11-08T03:29:43.727Z,101332.05
2017-11-08T03:31:46.605Z,101337.95
2017-11-08T03:33:48.377Z,101339.83
2017-11-08T03:35:51.884Z,101334.73
2017-11-08T03:37:54.560Z,101335.95
2017-11-08T03:39:56.208Z,101336.82
2017-11-08T03:41:58.055Z,101325.61
2017-11-08T03:43:59.727Z,101328.28
2017-11-08T03:46:02.019Z,101330.59
2017-11-08T03:48:03.902Z,101318.78
2017-11-08T03:50:05.724Z,101323.89
2017-11-08T03:52:07.764Z,101332.78
2017-11-08T03:54:09.727Z,101325.50
2017-11-08T03:56:11.421Z,101330.70
2017-11-08T03:58:13.557Z,101329.80
2017-11-08T04:00:15.516Z,101327.83
2017-11-08T04:02:17.480Z,101326.45
2017-11-08T04:04:19.209Z,101326.05
2017-11-08T04:06:21.690Z,101322.00
2017-11-08T04:08:23.451Z,101324.40
2017-11-08T04:10:25.205Z,101333.81
2017-11-08T04:12:27.171Z,101336.48
2017-11-08T04:14:29.129Z,101331.05
2017-11-08T04:16:30.971Z,101337.48
2017-11-08T04:18:32.646Z,101342.23
2017-11-08T04:20:34.691Z,101350.85
2017-11-08T04:22:38.396Z,101345.84
2017-11-08T04:24:40.372Z,101343.28
2017-11-08T04:26:42.321Z,101337.48
2017-11-08T04:28:44.485Z,101329.56
2017-11-08T04:30:46.559Z,101328.38
2017-11-08T04:32:48.898Z,101334.29
2017-11-08T04:34:50.659Z,101338.20
2017-11-08T04:36:54.643Z,101339.85
2017-11-08T04:38:56.531Z,101331.92
2017-11-08T04:40:58.606Z,101337.00
2017-11-08T04:43:00.772Z,101337.77
2017-11-08T04:45:02.840Z,101339.17
2017-11-08T04:47:04.851Z,101339.23
2017-11-08T04:49:07.082Z,101337.06
2017-11-08T04:51:09.609Z,101348.03
2017-11-08T04:53:11.797Z,101351.97
2017-11-08T04:55:14.165Z,101358.53
2017-11-08T04:57:16.331Z,101356.03
2017-11-08T04:59:18.810Z,101353.52
2017-11-08T05:01:20.864Z,101353.45
2017-11-08T05:03:23.043Z,101351.91
2017-11-08T05:05:25.406Z,101350.59
2017-11-08T05:07:27.563Z,101345.34
2017-11-08T05:09:29.531Z,101338.96
2017-11-08T05:11:31.692Z,101347.14
2017-11-08T05:13:33.923Z,101358.37
2017-11-08T05:15:36.169Z,101355.76
2017-11-08T05:17:38.486Z,101355.31
2017-11-08T05:19:40.760Z,101357.92
2017-11-08T05:21:42.924Z,101357.08
2017-11-08T05:23:44.825Z,101340.01
2017-11-08T05:25:46.647Z,101335.23
2017-11-08T05:27:48.920Z,101336.81
2017-11-08T05:29:51.046Z,101342.46
2017-11-08T05:33:59.518Z,101332.75
2017-11-08T05:36:01.568Z,101334.65
2017-11-08T05:40:09.694Z,101328.77
2017-11-08T05:42:11.564Z,101323.53
2017-11-08T05:44:13.605Z,101333.20
2017-11-08T05:46:15.660Z,101328.64
2017-11-08T05:48:17.637Z,101340.41
2017-11-08T05:50:19.802Z,101347.95
2017-11-08T05:52:21.653Z,101352.25
2017-11-08T05:54:23.724Z,101351.04
2017-11-08T05:56:25.773Z,101363.09
2017-11-08T05:58:27.844Z,101354.73
2017-11-08T06:00:30.121Z,101359.83
2017-11-08T06:02:32.167Z,101363.17
2017-11-08T06:04:34.329Z,101363.63
2017-11-08T06:08:49.930Z,101367.05
2017-11-08T06:10:54.009Z,101359.37
2017-11-08T06:12:56.979Z,101361.20
2017-11-08T06:15:00.355Z,101359.91
2017-11-08T06:17:03.767Z,101357.92
2017-11-08T06:19:06.982Z,101354.47
2017-11-08T06:21:09.838Z,101363.20
2017-11-08T06:23:13.375Z,101363.63
2017-11-08T06:25:16.539Z,101353.39
2017-11-08T06:27:20.024Z,101359.25
2017-11-08T06:29:23.010Z,101354.76
2017-11-08T06:31:26.107Z,101357.33
2017-11-08T06:33:29.492Z,101359.48
2017-11-08T06:35:33.102Z,101361.12
2017-11-08T06:37:36.457Z,101354.34
2017-11-08T06:39:39.307Z,101353.19
2017-11-08T06:41:42.461Z,101362.06
2017-11-08T06:43:47.129Z,101368.13
2017-11-08T06:45:50.397Z,101372.86
2017-11-08T06:47:53.671Z,101371.06
2017-11-08T06:49:56.956Z,101362.06
2017-11-08T06:52:00.061Z,101370.25
2017-11-08T06:54:09.576Z,101361.75
2017-11-08T06:56:13.113Z,101357.16
2017-11-08T06:58:16.127Z,101353.73
2017-11-08T07:00:19.762Z,101364.12
2017-11-08T07:02:23.070Z,101370.67
2017-11-08T07:04:26.565Z,101363.22
2017-11-08T07:06:30.415Z,101379.81
2017-11-08T07:08:33.437Z,101377.08
2017-11-08T07:10:37.169Z,101386.18
2017-11-08T07:12:41.179Z,101390.52
2017-11-08T07:14:46.796Z,101400.05
2017-11-08T07:16:49.866Z,101412.05
2017-11-08T07:18:52.847Z,101410.60
2017-11-08T07:20:56.346Z,101410.23
2017-11-08T07:22:59.348Z,101420.52
2017-11-08T07:25:03.030Z,101418.49
2017-11-08T07:27:06.587Z,101412.66
2017-11-08T07:29:09.857Z,101423.60
2017-11-08T07:31:13.429Z,101421.95
2017-11-08T07:33:16.763Z,101430.30
2017-11-08T07:35:20.156Z,101425.55
2017-11-08T07:37:23.820Z,101430.57
2017-11-08T07:39:27.108Z,101438.69
2017-11-08T07:41:30.710Z,101444.36
2017-11-08T07:43:33.712Z,101458.08
2017-11-08T07:45:37.531Z,101457.20
2017-11-08T07:47:41.018Z,101451.67
2017-11-08T07:49:44.189Z,101451.53
2017-11-08T07:51:47.805Z,101452.80
2017-11-08T07:53:51.481Z,101452.83
2017-11-08T07:55:54.778Z,101454.78
2017-11-08T07:57:58.355Z,101452.12
2017-11-08T08:00:02.781Z,101451.20
2017-11-08T08:02:05.861Z,101454.10
2017-11-08T08:04:09.709Z,101452.47
2017-11-08T08:06:13.370Z,101451.53
2017-11-08T08:08:18.368Z,101460.39
2017-11-08T08:10:22.593Z,101456.16
2017-11-08T08:12:25.499Z,101452.44
2017-11-08T08:14:29.393Z,101463.27
2017-11-08T08:16:32.441Z,101455.66
2017-11-08T08:18:36.292Z,101471.78
2017-11-08T08:20:39.288Z,101463.66
2017-11-08T08:22:42.486Z,101465.50
2017-11-08T08:24:46.225Z,101464.55
2017-11-08T08:26:49.464Z,101469.12
2017-11-08T08:28:52.304Z,101469.26
2017-11-08T08:30:55.863Z,101467.73
2017-11-08T08:33:01.111Z,101464.98
2017-11-08T08:35:04.992Z,101481.10
2017-11-08T08:37:08.086Z,101482.64
2017-11-08T08:39:11.045Z,101479.63
2017-11-08T08:41:14.535Z,101476.26
2017-11-08T08:43:18.364Z,101480.91
2017-11-08T08:45:23.167Z,101487.27
2017-11-08T08:47:27.168Z,101489.01
2017-11-08T08:49:29.630Z,101492.78
2017-11-08T08:51:33.359Z,101497.98
2017-11-08T08:53:36.563Z,101494.37
2017-11-08T08:55:40.404Z,101497.70
2017-11-08T08:57:45.656Z,101495.50
2017-11-08T08:59:50.846Z,101495.64
2017-11-08T09:01:56.528Z,101498.77
2017-11-08T09:04:00.840Z,101492.70
2017-11-08T09:06:04.636Z,101492.47
2017-11-08T09:08:08.017Z,101496.78
2017-11-08T09:10:13.403Z,101490.58
2017-11-08T09:12:16.899Z,101502.38
2017-11-08T09:14:20.136Z,101497.63
2017-11-08T09:16:23.421Z,101497.29
2017-11-08T09:18:26.859Z,101494.63
2017-11-08T09:20:29.987Z,101499.08
2017-11-08T09:22:33.736Z,101487.28
2017-11-08T09:24:36.664Z,101485.88
2017-11-08T09:26:39.635Z,101498.84
2017-11-08T09:28:43.373Z,101494.45
2017-11-08T09:30:46.763Z,101488.81
2017-11-08T09:32:49.833Z,101489.95
2017-11-08T09:34:53.484Z,101481.10
2017-11-08T09:36:58.401Z,101492.80
2017-11-08T09:39:02.759Z,101495.11
2017-11-08T09:41:05.763Z,101491.00
2017-11-08T09:43:08.865Z,101497.98
2017-11-08T09:45:12.565Z,101499.76
2017-11-08T09:47:15.390Z,101504.95
2017-11-08T09:49:18.836Z,101491.42
2017-11-08T09:51:22.637Z,101509.88
2017-11-08T09:53:26.147Z,101519.42
2017-11-08T09:55:29.355Z,101523.32
2017-11-08T09:57:32.538Z,101516.95
2017-11-08T09:59:35.488Z,101507.52
2017-11-08T10:01:42.363Z,101505.49
2017-11-08T10:03:45.562Z,101501.24
2017-11-08T10:05:49.190Z,101504.52
2017-11-08T10:07:52.644Z,101503.15
2017-11-08T10:09:55.408Z,101507.20
2017-11-08T10:12:01.201Z,101512.88
2017-11-08T10:14:04.689Z,101517.78
2017-11-08T10:16:08.109Z,101507.48
2017-11-08T10:18:11.168Z,101512.98
2017-11-08T10:20:15.744Z,101516.44
2017-11-08T10:22:21.296Z,101531.48
2017-11-08T10:26:30.786Z,101539.16
2017-11-08T10:28:34.545Z,101534.77
2017-11-08T10:30:38.451Z,101534.55
2017-11-08T10:32:40.606Z,101524.20
2017-11-08T10:34:42.568Z,101530.30
2017-11-08T10:36:44.646Z,101534.43
2017-11-08T10:38:47.405Z,101522.99
2017-11-08T10:40:51.089Z,101535.45
2017-11-08T10:42:54.420Z,101531.27
2017-11-08T10:44:57.843Z,101516.45
2017-11-08T10:47:02.074Z,101526.77
2017-11-08T10:49:06.154Z,101528.48
2017-11-08T10:51:10.465Z,101529.28
2017-11-08T10:53:15.036Z,101520.73
2017-11-08T10:55:21.235Z,101521.33
2017-11-08T10:57:31.122Z,101506.95
2017-11-08T10:59:33.370Z,101506.43
2017-11-08T11:01:37.132Z,101522.05
2017-11-08T11:03:40.410Z,101518.17
2017-11-08T11:05:43.589Z,101522.02
2017-11-08T11:07:46.461Z,101522.41
2017-11-08T11:09:50.764Z,101525.25
2017-11-08T11:11:54.635Z,101518.86
2017-11-08T11:13:57.608Z,101525.90
2017-11-08T11:16:03.502Z,101530.75
2017-11-08T11:18:06.626Z,101527.73
2017-11-08T11:20:09.879Z,101532.47
2017-11-08T11:22:13.448Z,101542.19
2017-11-08T11:24:16.644Z,101542.63
2017-11-08T11:26:20.030Z,101538.48
2017-11-08T11:28:24.023Z,101527.05
2017-11-08T11:30:27.126Z,101524.78
2017-11-08T11:32:32.088Z,101535.03
2017-11-08T11:34:35.050Z,101525.98
2017-11-08T11:36:38.141Z,101526.41
2017-11-08T11:38:41.626Z,101532.48
2017-11-08T11:40:45.144Z,101535.37
2017-11-08T11:42:48.412Z,101539.42
2017-11-08T11:44:52.143Z,101535.09
2017-11-08T11:46:55.311Z,101540.62
2017-11-08T11:48:58.475Z,101536.92
2017-11-08T11:51:02.283Z,101538.53
2017-11-08T11:53:05.354Z,101542.94
2017-11-08T11:55:09.303Z,101542.02
2017-11-08T11:57:13.093Z,101540.43
2017-11-08T11:59:16.390Z,101540.88
2017-11-08T12:01:19.354Z,101539.30
2017-11-08T12:03:23.308Z,101537.79
2017-11-08T12:05:26.129Z,101541.38
2017-11-08T12:07:29.453Z,101544.05
2017-11-08T12:09:33.359Z,101535.93
2017-11-08T12:11:36.445Z,101539.15
2017-11-08T12:13:39.521Z,101528.69
2017-11-08T12:15:44.387Z,101533.27
2017-11-08T12:17:48.167Z,101535.69
2017-11-08T12:19:51.475Z,101536.28
2017-11-08T12:21:55.022Z,101539.89
2017-11-08T12:23:58.457Z,101543.03
2017-11-08T12:26:03.892Z,101550.64
2017-11-08T12:28:06.437Z,101548.98
2017-11-08T12:30:11.751Z,101551.12
2017-11-08T12:32:15.182Z,101545.36
2017-11-08T12:34:18.804Z,101546.81
2017-11-08T12:36:22.845Z,101538.30
2017-11-08T12:38:27.585Z,101541.27
2017-11-08T12:40:29.643Z,101532.82
2017-11-08T12:42:33.509Z,101522.92
2017-11-08T12:44:36.799Z,101529.13
2017-11-08T12:46:40.067Z,101535.88
2017-11-08T12:48:44.000Z,101531.63
2017-11-08T12:50:46.410Z,101529.39
2017-11-08T12:52:51.846Z,101527.93
2017-11-08T12:54:53.925Z,101510.79
2017-11-08T12:56:56.150Z,101523.28
2017-11-08T12:58:59.815Z,101531.81
2017-11-08T13:01:02.700Z,101527.59
2017-11-08T13:03:06.364Z,101526.45
2017-11-08T13:05:10.000Z,101542.41
2017-11-08T13:07:13.197Z,101543.56
2017-11-08T13:09:16.604Z,101531.20
2017-11-08T13:11:19.984Z,101536.09
2017-11-08T13:13:23.172Z,101542.94
2017-11-08T13:15:26.473Z,101530.62
2017-11-08T13:17:30.390Z,101542.69
2017-11-08T13:19:33.877Z,101538.47
2017-11-08T13:21:37.199Z,101534.45
2017-11-08T13:23:40.614Z,101534.45
2017-11-08T13:25:43.937Z,101542.94
2017-11-08T13:27:48.497Z,101537.66
2017-11-08T13:29:53.055Z,101538.28
2017-11-08T13:31:57.078Z,101539.23
2017-11-08T13:34:01.027Z,101542.27
2017-11-08T13:36:02.928Z,101542.69
2017-11-08T13:38:04.902Z,101539.84
2017-11-08T13:40:08.191Z,101536.30
2017-11-08T13:42:12.173Z,101545.55
2017-11-08T13:44:15.660Z,101546.98
2017-11-08T13:46:19.698Z,101542.51
2017-11-08T13:48:22.554Z,101549.83
2017-11-08T13:50:25.728Z,101552.44
2017-11-08T13:52:27.936Z,101557.59
2017-11-08T13:54:30.201Z,101551.41
2017-11-08T13:56:34.153Z,101549.16
2017-11-08T13:58:37.436Z,101557.09
2017-11-08T14:00:39.470Z,101560.60
2017-11-08T14:02:41.399Z,101559.67
2017-11-08T14:04:45.152Z,101560.62
2017-11-08T14:06:48.751Z,101563.45
2017-11-08T14:08:53.048Z,101554.92
2017-11-08T14:10:59.207Z,101564.67
2017-11-08T14:13:02.943Z,101563.53
2017-11-08T14:15:06.441Z,101563.88
2017-11-08T14:17:09.535Z,101559.58
2017-11-08T14:19:13.454Z,101567.86
2017-11-08T14:21:16.501Z,101566.14
2017-11-08T14:23:20.342Z,101565.43
2017-11-08T14:25:23.717Z,101565.41
2017-11-08T14:27:26.494Z,101566.54
2017-11-08T14:29:29.776Z,101567.02
2017-11-08T14:31:34.027Z,101576.55
2017-11-08T14:33:37.538Z,101578.72
2017-11-08T14:35:45.449Z,101579.48
2017-11-08T14:37:48.988Z,101582.95
2017-11-08T14:39:52.444Z,101586.65
2017-11-08T14:41:55.883Z,101591.16
2017-11-08T14:43:59.511Z,101590.27
2017-11-08T14:46:02.777Z,101587.73
2017-11-08T14:48:11.349Z,101595.55
2017-11-08T14:50:15.557Z,101589.79
2017-11-08T14:52:18.700Z,101582.69
2017-11-08T14:54:22.130Z,101582.19
2017-11-08T14:56:25.480Z,101598.48
2017-11-08T14:58:29.355Z,101599.72
2017-11-08T15:00:32.672Z,101596.77
2017-11-08T15:02:36.368Z,101601.68
2017-11-08T15:04:39.716Z,101596.77
2017-11-08T15:06:42.641Z,101606.78
2017-11-08T15:08:45.999Z,101608.16
2017-11-08T15:10:49.648Z,101608.00
2017-11-08T15:12:52.749Z,101606.49
2017-11-08T15:14:56.543Z,101612.62
2017-11-08T15:16:59.640Z,101611.33
2017-11-08T15:19:02.672Z,101605.83
2017-11-08T15:21:06.203Z,101613.38
2017-11-08T15:23:09.630Z,101607.36
2017-11-08T15:25:12.682Z,101599.59
2017-11-08T15:27:16.177Z,101609.59
2017-11-08T15:29:19.284Z,101618.66
2017-11-08T15:31:22.708Z,101618.66
2017-11-08T15:33:26.264Z,101616.77
2017-11-08T15:35:29.352Z,101615.92
2017-11-08T15:37:32.320Z,101622.29
2017-11-08T15:39:35.858Z,101625.14
2017-11-08T15:41:39.128Z,101626.76
2017-11-08T15:43:42.979Z,101627.20
2017-11-08T15:45:48.221Z,101627.91
2017-11-08T15:47:52.841Z,101629.64
2017-11-08T15:49:57.031Z,101629.77
2017-11-08T15:52:01.330Z,101633.78
2017-11-08T15:54:09.572Z,101629.53
2017-11-08T15:56:14.344Z,101632.12
2017-11-08T15:58:20.303Z,101632.06
2017-11-08T16:00:24.079Z,101641.42
2017-11-08T16:02:27.545Z,101647.39
2017-11-08T16:04:32.272Z,101645.23
2017-11-08T16:06:36.891Z,101650.35
2017-11-08T16:08:40.721Z,101651.81
2017-11-08T16:10:50.241Z,101646.20
2017-11-08T16:12:54.321Z,101655.33
2017-11-08T16:17:05.643Z,101656.06
2017-11-08T16:19:09.342Z,101653.37
2017-11-08T16:21:13.584Z,101653.10
2017-11-08T16:23:19.573Z,101655.61
2017-11-08T16:25:22.499Z,101649.75
2017-11-08T16:27:26.358Z,101660.45
2017-11-08T16:29:30.100Z,101654.16
2017-11-08T16:31:33.270Z,101663.13
2017-11-08T16:33:37.187Z,101659.34
2017-11-08T16:35:41.472Z,101657.54
2017-11-08T16:39:53.101Z,101664.41
2017-11-08T16:41:58.620Z,101680.38
2017-11-08T16:44:03.131Z,101671.52
2017-11-08T16:46:06.817Z,101680.72
2017-11-08T16:48:15.688Z,101684.44
2017-11-08T16:50:19.572Z,101684.70
2017-11-08T16:52:22.539Z,101679.95
2017-11-08T16:54:26.132Z,101676.62
2017-11-08T16:56:29.227Z,101684.39
2017-11-08T16:58:32.260Z,101678.23
2017-11-08T17:00:35.818Z,101683.75
2017-11-08T17:02:38.776Z,101686.27
2017-11-08T17:04:41.796Z,101699.31
2017-11-08T17:06:45.270Z,101698.86
2017-11-08T17:08:50.037Z,101697.99
2017-11-08T17:10:53.197Z,101709.67
2017-11-08T17:12:57.687Z,101705.86
2017-11-08T17:15:00.573Z,101707.08
2017-11-08T17:17:03.885Z,101702.66
2017-11-08T17:19:07.180Z,101704.98
2017-11-08T17:21:10.139Z,101715.69
2017-11-08T17:23:13.554Z,101711.12
2017-11-08T17:25:17.324Z,101708.63
2017-11-08T17:27:20.337Z,101709.98
2017-11-08T17:31:37.069Z,101724.52
2017-11-08T17:33:40.231Z,101723.11
2017-11-08T17:35:43.376Z,101727.84
2017-11-08T17:37:46.722Z,101739.97
2017-11-08T17:39:49.480Z,101723.34
2017-11-08T17:41:52.741Z,101731.98
2017-11-08T17:43:56.144Z,101725.96
2017-11-08T17:45:59.296Z,101728.37
2017-11-08T17:48:02.346Z,101737.73
2017-11-08T17:50:05.742Z,101731.06
2017-11-08T17:52:08.764Z,101742.54
2017-11-08T17:54:12.260Z,101736.74
2017-11-08T17:56:16.149Z,101731.91
2017-11-08T17:58:19.356Z,101733.83
2017-11-08T18:00:23.049Z,101729.50
2017-11-08T18:02:27.918Z,101732.01
2017-11-08T18:06:38.391Z,101743.23
2017-11-08T18:08:42.677Z,101744.18
2017-11-08T18:10:46.868Z,101734.00
2017-11-08T18:12:51.399Z,101744.34
2017-11-08T18:14:54.676Z,101741.48
2017-11-08T18:16:57.811Z,101734.50
2017-11-08T18:19:00.832Z,101744.63
2017-11-08T18:21:04.550Z,101752.27
2017-11-08T18:23:07.518Z,101742.27
2017-11-08T18:25:10.394Z,101741.84
2017-11-08T18:27:13.611Z,101752.80
2017-11-08T18:29:16.612Z,101750.42
2017-11-08T18:31:19.614Z,101748.16
2017-11-08T18:33:23.207Z,101748.43
2017-11-08T18:35:26.257Z,101749.13
2017-11-08T18:37:29.223Z,101747.45
2017-11-08T18:39:32.732Z,101749.97
2017-11-08T18:41:36.375Z,101741.41
2017-11-08T18:43:38.647Z,101736.94
2017-11-08T18:45:40.602Z,101747.81
2017-11-08T18:47:42.482Z,101743.78
2017-11-08T18:49:45.938Z,101741.50
2017-11-08T18:51:50.229Z,101737.48
2017-11-08T18:53:53.566Z,101746.53
2017-11-08T18:55:56.493Z,101749.37
2017-11-08T18:58:00.092Z,101754.63
2017-11-08T19:00:03.550Z,101741.69
2017-11-08T19:02:06.835Z,101753.59
2017-11-08T19:04:10.168Z,101752.64
2017-11-08T19:06:13.258Z,101768.99
2017-11-08T19:08:17.476Z,101754.98
2017-11-08T19:10:20.968Z,101755.07
2017-11-08T19:12:25.281Z,101766.31
2017-11-08T19:14:28.077Z,101766.73
2017-11-08T19:16:31.716Z,101765.49
2017-11-08T19:18:34.864Z,101770.54
2017-11-08T19:20:37.628Z,101776.24
2017-11-08T19:22:41.345Z,101778.11
2017-11-08T19:24:44.249Z,101777.69
2017-11-08T19:26:47.399Z,101771.64
2017-11-08T19:28:51.004Z,101766.17
2017-11-08T19:30:54.095Z,101779.64
2017-11-08T19:32:57.080Z,101777.34
2017-11-08T19:35:00.623Z,101776.97
2017-11-08T19:37:03.548Z,101774.23
2017-11-08T19:39:06.401Z,101774.23
2017-11-08T19:41:09.517Z,101781.53
2017-11-08T19:43:12.479Z,101773.84
2017-11-08T19:45:15.491Z,101775.50
2017-11-08T19:47:25.456Z,101776.47
2017-11-08T19:49:29.649Z,101771.50
2017-11-08T19:51:31.791Z,101775.08
2017-11-08T19:55:49.378Z,101795.63
2017-11-08T19:57:52.333Z,101790.42
2017-11-08T19:59:55.679Z,101805.03
2017-11-08T20:01:58.615Z,101796.94
2017-11-08T20:04:01.489Z,101803.39
2017-11-08T20:06:04.552Z,101798.46
2017-11-08T20:08:08.242Z,101799.83
2017-11-08T20:10:12.203Z,101793.55
2017-11-08T20:12:18.053Z,101792.26
2017-11-08T20:14:21.813Z,101799.08
2017-11-08T20:16:25.702Z,101799.93
2017-11-08T20:18:30.215Z,101802.34
2017-11-08T20:22:39.758Z,101795.59
2017-11-08T20:24:42.971Z,101801.32
2017-11-08T20:26:45.827Z,101798.23
2017-11-08T20:28:48.573Z,101807.35
2017-11-08T20:30:52.170Z,101802.32
2017-11-08T20:35:14.037Z,101803.47
2017-11-08T20:37:17.324Z,101798.44
2017-11-08T20:39:20.180Z,101802.67
2017-11-08T20:41:23.163Z,101800.72
2017-11-08T20:43:26.464Z,101788.72
2017-11-08T20:45:29.438Z,101792.43
2017-11-08T20:47:32.421Z,101791.02
2017-11-08T20:49:35.716Z,101796.97
2017-11-08T20:51:40.052Z,101796.72
2017-11-08T20:53:44.097Z,101795.08
2017-11-08T20:55:47.024Z,101794.58
2017-11-08T20:57:50.383Z,101791.66
2017-11-08T20:59:54.663Z,101782.72
2017-11-08T21:01:59.584Z,101785.78
2017-11-08T21:04:01.772Z,101792.23
2017-11-08T21:08:34.113Z,101784.89
2017-11-08T21:10:37.112Z,101793.16
2017-11-08T21:12:39.980Z,101797.27
2017-11-08T21:14:43.167Z,101798.73
2017-11-08T21:16:45.966Z,101804.51
2017-11-08T21:18:49.033Z,101797.14
2017-11-08T21:20:52.540Z,101814.69
2017-11-08T21:22:56.402Z,101798.27
2017-11-08T21:25:00.674Z,101804.94
2017-11-08T21:27:04.417Z,101805.55
2017-11-08T21:29:08.330Z,101801.49
2017-11-08T21:31:12.734Z,101807.20
2017-11-08T21:33:17.324Z,101806.65
2017-11-08T21:35:20.326Z,101561.06
2017-11-08T21:39:31.349Z,101808.24
2017-11-08T21:41:34.046Z,101800.03
2017-11-08T21:43:37.033Z,101805.63
2017-11-08T21:45:40.323Z,101804.95
2017-11-08T21:47:43.619Z,101804.69
2017-11-08T21:49:46.915Z,101804.59
2017-11-08T21:51:50.196Z,101800.53
2017-11-08T21:53:53.077Z,101802.89
2017-11-08T21:55:55.858Z,101810.23
2017-11-08T21:57:59.720Z,101806.87
2017-11-08T22:00:02.747Z,101813.34
2017-11-08T22:02:05.628Z,101812.92
2017-11-08T22:04:08.890Z,101804.53
2017-11-08T22:06:11.923Z,101806.23
2017-11-08T22:08:15.015Z,101805.73
2017-11-08T22:10:18.420Z,101797.71
2017-11-08T22:12:21.489Z,101801.95
2017-11-08T22:14:24.576Z,101810.06
2017-11-08T22:16:27.814Z,101815.92
2017-11-08T22:18:30.608Z,101818.95
2017-11-08T22:20:33.721Z,101812.19
2017-11-08T22:22:37.008Z,101804.53
2017-11-08T22:24:39.748Z,101806.18
2017-11-08T22:26:42.662Z,101806.83
2017-11-08T22:28:45.867Z,101809.42
2017-11-08T22:30:49.578Z,101808.09
2017-11-08T22:32:52.557Z,101810.66
2017-11-08T22:34:55.687Z,101806.95
2017-11-08T22:36:58.408Z,101818.16
2017-11-08T22:39:01.246Z,101806.23
2017-11-08T22:41:04.787Z,101816.45
2017-11-08T22:43:07.459Z,101807.67
2017-11-08T22:45:10.142Z,101809.77
2017-11-08T22:47:13.431Z,101808.74
2017-11-08T22:49:17.439Z,101810.34
2017-11-08T22:51:20.462Z,101801.09
2017-11-08T22:53:24.125Z,101807.86
2017-11-08T22:55:26.760Z,101803.44
2017-11-08T22:57:29.701Z,101800.45
2017-11-08T22:59:32.614Z,101793.63
2017-11-08T23:01:35.448Z,101795.69
2017-11-08T23:03:38.359Z,101792.23
2017-11-08T23:05:41.499Z,101791.95
2017-11-08T23:07:44.299Z,101796.52
2017-11-08T23:09:47.177Z,101793.70
2017-11-08T23:11:50.676Z,101795.73
2017-11-08T23:13:53.357Z,101794.45
2017-11-08T23:15:56.101Z,101790.38
2017-11-08T23:17:59.613Z,101792.27
2017-11-08T23:20:02.615Z,101799.09
2017-11-08T23:22:05.492Z,101806.05
2017-11-08T23:24:08.737Z,101800.34
2017-11-08T23:26:11.668Z,101801.28
2017-11-08T23:28:14.309Z,101803.52
2017-11-08T23:30:17.534Z,101803.95
2017-11-08T23:32:22.515Z,101798.10
2017-11-08T23:34:25.548Z,101801.70
2017-11-08T23:36:28.810Z,101796.09
2017-11-08T23:38:31.621Z,101797.53
2017-11-08T23:40:34.602Z,101789.98
2017-11-08T23:42:37.889Z,101793.00
2017-11-08T23:44:40.778Z,101791.41
2017-11-08T23:46:43.558Z,101792.70
2017-11-08T23:48:46.601Z,101794.16
2017-11-08T23:50:49.577Z,101811.27
2017-11-08T23:52:52.309Z,101800.98